sensor_id;sensor_type;location;lat;lon;timestamp;temperature;humidity
18894;DHT22;9579;49.488;8.226;2024-03-02T00:00:28;8.60;99.90
18894;DHT22;9579;49.488;8.226;2024-03-02T00:03:15;8.50;99.90
18894;DHT22;9579;49.488;8.226;2024-03-02T00:06:02;8.50;99.90
18894;DHT22;9579;49.488;8.226;2024-03-02T00:08:49;8.40;99.90
18894;DHT22;9579;49.488;8.226;2024-03-02T00:11:36;8.40;99.90
18894;DHT22;9579;49.488;8.226;2024-03-02T00:14:24;8.50;99.90
18894;DHT22;9579;49.488;8.226;2024-03-02T00:17:24;8.50;99.90
18894;DHT22;9579;49.488;8.226;2024-03-02T00:20:22;8.60;99.90
18894;DHT22;9579;49.488;8.226;2024-03-02T00:23:10;8.70;99.90
18894;DHT22;9579;49.488;8.226;2024-03-02T00:26:00;8.60;99.90
18894;DHT22;9579;49.488;8.226;2024-03-02T00:28:47;8.50;99.90
18894;DHT22;9579;49.488;8.226;2024-03-02T00:31:39;8.40;99.90
18894;DHT22;9579;49.488;8.226;2024-03-02T00:34:26;8.30;99.90
18894;DHT22;9579;49.488;8.226;2024-03-02T00:37:14;8.30;99.90
18894;DHT22;9579;49.488;8.226;2024-03-02T00:40:01;8.10;99.90
18894;DHT22;9579;49.488;8.226;2024-03-02T00:42:50;8.10;99.90
18894;DHT22;9579;49.488;8.226;2024-03-02T00:45:39;8.20;99.90
18894;DHT22;9579;49.488;8.226;2024-03-02T00:48:28;8.00;99.90
18894;DHT22;9579;49.488;8.226;2024-03-02T00:51:17;7.80;99.90
18894;DHT22;9579;49.488;8.226;2024-03-02T00:54:05;7.80;99.90
18894;DHT22;9579;49.488;8.226;2024-03-02T00:56:52;7.90;99.90
18894;DHT22;9579;49.488;8.226;2024-03-02T00:59:40;8.00;99.90
18894;DHT22;9579;49.488;8.226;2024-03-02T01:02:28;8.00;99.90
18894;DHT22;9579;49.488;8.226;2024-03-02T01:05:17;8.00;99.90
18894;DHT22;9579;49.488;8.226;2024-03-02T01:08:05;8.00;99.90
18894;DHT22;9579;49.488;8.226;2024-03-02T01:10:52;8.10;99.90
18894;DHT22;9579;49.488;8.226;2024-03-02T01:13:40;8.10;99.90
18894;DHT22;9579;49.488;8.226;2024-03-02T01:16:27;8.00;99.90
18894;DHT22;9579;49.488;8.226;2024-03-02T01:19:14;7.90;99.90
18894;DHT22;9579;49.488;8.226;2024-03-02T01:22:02;7.90;99.90
18894;DHT22;9579;49.488;8.226;2024-03-02T01:24:49;8.00;99.90
18894;DHT22;9579;49.488;8.226;2024-03-02T01:27:36;7.80;99.90
18894;DHT22;9579;49.488;8.226;2024-03-02T01:30:23;7.80;99.90
18894;DHT22;9579;49.488;8.226;2024-03-02T01:33:11;7.70;99.90
18894;DHT22;9579;49.488;8.226;2024-03-02T01:35:58;7.80;99.90
18894;DHT22;9579;49.488;8.226;2024-03-02T01:38:46;7.90;99.90
18894;DHT22;9579;49.488;8.226;2024-03-02T01:41:33;7.80;99.90
18894;DHT22;9579;49.488;8.226;2024-03-02T01:44:20;7.70;99.90
18894;DHT22;9579;49.488;8.226;2024-03-02T01:47:07;7.70;99.90
18894;DHT22;9579;49.488;8.226;2024-03-02T01:49:54;7.50;99.90
18894;DHT22;9579;49.488;8.226;2024-03-02T01:52:41;7.40;99.90
18894;DHT22;9579;49.488;8.226;2024-03-02T01:55:31;7.40;99.90
18894;DHT22;9579;49.488;8.226;2024-03-02T01:58:20;7.40;99.90
18894;DHT22;9579;49.488;8.226;2024-03-02T02:01:07;7.50;99.90
18894;DHT22;9579;49.488;8.226;2024-03-02T02:03:55;7.70;99.90
18894;DHT22;9579;49.488;8.226;2024-03-02T02:06:44;7.70;99.90
18894;DHT22;9579;49.488;8.226;2024-03-02T02:09:31;7.80;99.90
18894;DHT22;9579;49.488;8.226;2024-03-02T02:12:19;7.80;99.90
18894;DHT22;9579;49.488;8.226;2024-03-02T02:15:24;7.70;99.90
18894;DHT22;9579;49.488;8.226;2024-03-02T02:18:11;7.50;99.90
18894;DHT22;9579;49.488;8.226;2024-03-02T02:20:58;7.60;99.90
18894;DHT22;9579;49.488;8.226;2024-03-02T02:23:47;7.70;99.90
18894;DHT22;9579;49.488;8.226;2024-03-02T02:26:34;7.70;99.90
18894;DHT22;9579;49.488;8.226;2024-03-02T02:29:21;7.70;99.90
18894;DHT22;9579;49.488;8.226;2024-03-02T02:32:08;7.60;99.90
18894;DHT22;9579;49.488;8.226;2024-03-02T02:34:55;7.60;99.90
18894;DHT22;9579;49.488;8.226;2024-03-02T02:37:42;7.70;99.90
18894;DHT22;9579;49.488;8.226;2024-03-02T02:40:31;7.70;99.90
18894;DHT22;9579;49.488;8.226;2024-03-02T02:43:18;7.70;99.90
18894;DHT22;9579;49.488;8.226;2024-03-02T02:46:05;7.70;99.90
18894;DHT22;9579;49.488;8.226;2024-03-02T02:48:52;7.80;99.90
18894;DHT22;9579;49.488;8.226;2024-03-02T02:51:40;7.70;99.90
18894;DHT22;9579;49.488;8.226;2024-03-02T02:54:26;7.80;99.90
18894;DHT22;9579;49.488;8.226;2024-03-02T02:57:15;7.80;99.90
18894;DHT22;9579;49.488;8.226;2024-03-02T03:00:04;7.70;99.90
18894;DHT22;9579;49.488;8.226;2024-03-02T03:02:55;7.80;99.90
18894;DHT22;9579;49.488;8.226;2024-03-02T03:05:42;7.70;99.90
18894;DHT22;9579;49.488;8.226;2024-03-02T03:08:29;7.70;99.90
18894;DHT22;9579;49.488;8.226;2024-03-02T03:11:16;7.50;99.90
18894;DHT22;9579;49.488;8.226;2024-03-02T03:14:05;7.50;99.90
18894;DHT22;9579;49.488;8.226;2024-03-02T03:16:52;7.30;99.90
18894;DHT22;9579;49.488;8.226;2024-03-02T03:19:39;7.30;99.90
18894;DHT22;9579;49.488;8.226;2024-03-02T03:22:26;7.20;99.90
18894;DHT22;9579;49.488;8.226;2024-03-02T03:25:13;7.20;99.90
18894;DHT22;9579;49.488;8.226;2024-03-02T03:28:00;7.30;99.90
18894;DHT22;9579;49.488;8.226;2024-03-02T03:30:50;7.20;99.90
18894;DHT22;9579;49.488;8.226;2024-03-02T03:33:37;7.10;99.90
18894;DHT22;9579;49.488;8.226;2024-03-02T03:36:24;7.00;99.90
18894;DHT22;9579;49.488;8.226;2024-03-02T03:39:11;6.90;99.90
18894;DHT22;9579;49.488;8.226;2024-03-02T03:41:58;6.90;99.90
18894;DHT22;9579;49.488;8.226;2024-03-02T03:44:45;6.90;99.90
18894;DHT22;9579;49.488;8.226;2024-03-02T03:47:33;7.10;99.90
18894;DHT22;9579;49.488;8.226;2024-03-02T03:50:20;6.90;99.90
18894;DHT22;9579;49.488;8.226;2024-03-02T03:53:07;6.90;99.90
18894;DHT22;9579;49.488;8.226;2024-03-02T03:55:54;7.00;99.90
18894;DHT22;9579;49.488;8.226;2024-03-02T03:58:41;7.10;99.90
18894;DHT22;9579;49.488;8.226;2024-03-02T04:01:28;7.20;99.90
18894;DHT22;9579;49.488;8.226;2024-03-02T04:04:16;7.20;99.90
18894;DHT22;9579;49.488;8.226;2024-03-02T04:07:04;7.30;99.90
18894;DHT22;9579;49.488;8.226;2024-03-02T04:09:51;7.40;99.90
18894;DHT22;9579;49.488;8.226;2024-03-02T04:12:38;7.40;99.90
18894;DHT22;9579;49.488;8.226;2024-03-02T04:15:25;7.50;99.90
18894;DHT22;9579;49.488;8.226;2024-03-02T04:18:12;7.30;99.90
18894;DHT22;9579;49.488;8.226;2024-03-02T04:21:00;7.30;99.90
18894;DHT22;9579;49.488;8.226;2024-03-02T04:23:47;7.30;99.90
18894;DHT22;9579;49.488;8.226;2024-03-02T04:26:34;7.30;99.90
18894;DHT22;9579;49.488;8.226;2024-03-02T04:29:21;7.40;99.90
18894;DHT22;9579;49.488;8.226;2024-03-02T04:32:08;7.40;99.90
18894;DHT22;9579;49.488;8.226;2024-03-02T04:34:55;7.40;99.90
18894;DHT22;9579;49.488;8.226;2024-03-02T04:37:43;7.50;99.90
18894;DHT22;9579;49.488;8.226;2024-03-02T04:40:30;7.60;99.90
18894;DHT22;9579;49.488;8.226;2024-03-02T04:43:17;7.50;99.90
18894;DHT22;9579;49.488;8.226;2024-03-02T04:46:05;7.50;99.90
18894;DHT22;9579;49.488;8.226;2024-03-02T04:48:52;7.30;99.90
18894;DHT22;9579;49.488;8.226;2024-03-02T04:51:42;7.20;99.90
18894;DHT22;9579;49.488;8.226;2024-03-02T04:54:31;7.10;99.90
18894;DHT22;9579;49.488;8.226;2024-03-02T04:57:18;7.30;99.90
18894;DHT22;9579;49.488;8.226;2024-03-02T05:00:09;7.30;99.90
18894;DHT22;9579;49.488;8.226;2024-03-02T05:03:00;7.20;99.90
18894;DHT22;9579;49.488;8.226;2024-03-02T05:08:24;7.60;99.90
18894;DHT22;9579;49.488;8.226;2024-03-02T05:11:33;7.20;99.90
18894;DHT22;9579;49.488;8.226;2024-03-02T05:26:27;7.60;99.90
18894;DHT22;9579;49.488;8.226;2024-03-02T05:29:38;7.40;99.90
18894;DHT22;9579;49.488;8.226;2024-03-02T05:32:36;6.80;99.90
18894;DHT22;9579;49.488;8.226;2024-03-02T05:35:25;7.30;99.90
18894;DHT22;9579;49.488;8.226;2024-03-02T05:38:13;8.90;99.90
18894;DHT22;9579;49.488;8.226;2024-03-02T05:41:03;7.60;99.90
18894;DHT22;9579;49.488;8.226;2024-03-02T05:43:53;7.60;99.90
18894;DHT22;9579;49.488;8.226;2024-03-02T05:46:41;8.20;99.90
18894;DHT22;9579;49.488;8.226;2024-03-02T05:49:29;7.60;99.90
18894;DHT22;9579;49.488;8.226;2024-03-02T05:52:16;7.60;99.90
18894;DHT22;9579;49.488;8.226;2024-03-02T05:55:12;9.30;99.90
18894;DHT22;9579;49.488;8.226;2024-03-02T06:09:49;7.90;99.90
18894;DHT22;9579;49.488;8.226;2024-03-02T06:15:17;7.90;99.90
18894;DHT22;9579;49.488;8.226;2024-03-02T06:20:40;7.70;99.90
18894;DHT22;9579;49.488;8.226;2024-03-02T06:23:28;7.80;99.90
18894;DHT22;9579;49.488;8.226;2024-03-02T06:26:25;7.30;99.90
18894;DHT22;9579;49.488;8.226;2024-03-02T06:29:15;6.30;99.90
18894;DHT22;9579;49.488;8.226;2024-03-02T06:32:03;7.20;99.90
18894;DHT22;9579;49.488;8.226;2024-03-02T06:37:28;7.90;99.90
18894;DHT22;9579;49.488;8.226;2024-03-02T06:48:05;8.00;99.90
18894;DHT22;9579;49.488;8.226;2024-03-02T06:50:54;6.40;99.90
18894;DHT22;9579;49.488;8.226;2024-03-02T06:53:45;7.70;99.90
18894;DHT22;9579;49.488;8.226;2024-03-02T06:56:33;9.00;99.90
18894;DHT22;9579;49.488;8.226;2024-03-02T06:59:07;8.70;99.90
18894;DHT22;9579;49.488;8.226;2024-03-02T07:02:13;6.90;99.90
18894;DHT22;9579;49.488;8.226;2024-03-02T07:05:03;8.30;99.90
18894;DHT22;9579;49.488;8.226;2024-03-02T07:07:54;7.60;99.90
18894;DHT22;9579;49.488;8.226;2024-03-02T07:10:41;7.60;99.90
18894;DHT22;9579;49.488;8.226;2024-03-02T07:13:31;7.50;99.90
18894;DHT22;9579;49.488;8.226;2024-03-02T07:16:38;7.30;99.90
18894;DHT22;9579;49.488;8.226;2024-03-02T07:19:35;6.80;99.90
18894;DHT22;9579;49.488;8.226;2024-03-02T07:22:30;7.80;99.90
18894;DHT22;9579;49.488;8.226;2024-03-02T07:25:19;8.70;99.90
18894;DHT22;9579;49.488;8.226;2024-03-02T07:28:13;7.60;99.90
18894;DHT22;9579;49.488;8.226;2024-03-02T07:31:04;7.60;99.90
18894;DHT22;9579;49.488;8.226;2024-03-02T07:34:12;8.70;99.90
18894;DHT22;9579;49.488;8.226;2024-03-02T07:40:02;8.00;99.90
18894;DHT22;9579;49.488;8.226;2024-03-02T07:53:11;8.40;99.90
18894;DHT22;9579;49.488;8.226;2024-03-02T07:56:07;8.50;99.90
18894;DHT22;9579;49.488;8.226;2024-03-02T07:58:58;8.60;99.90
18894;DHT22;9579;49.488;8.226;2024-03-02T08:01:56;8.00;99.90
18894;DHT22;9579;49.488;8.226;2024-03-02T08:04:44;9.00;99.90
18894;DHT22;9579;49.488;8.226;2024-03-02T08:07:34;10.40;99.90
18894;DHT22;9579;49.488;8.226;2024-03-02T08:10:22;9.00;99.90
18894;DHT22;9579;49.488;8.226;2024-03-02T08:13:10;9.60;99.90
18894;DHT22;9579;49.488;8.226;2024-03-02T08:15:57;10.70;99.90
18894;DHT22;9579;49.488;8.226;2024-03-02T08:18:47;9.30;99.90
18894;DHT22;9579;49.488;8.226;2024-03-02T08:21:35;10.10;99.90
18894;DHT22;9579;49.488;8.226;2024-03-02T08:24:22;10.70;99.90
18894;DHT22;9579;49.488;8.226;2024-03-02T08:27:10;10.40;99.90
18894;DHT22;9579;49.488;8.226;2024-03-02T08:29:58;9.90;99.90
18894;DHT22;9579;49.488;8.226;2024-03-02T08:32:45;9.90;99.90
18894;DHT22;9579;49.488;8.226;2024-03-02T08:35:33;10.80;99.90
18894;DHT22;9579;49.488;8.226;2024-03-02T08:38:22;11.30;99.90
18894;DHT22;9579;49.488;8.226;2024-03-02T08:41:11;11.30;99.90
18894;DHT22;9579;49.488;8.226;2024-03-02T08:44:12;9.70;99.90
18894;DHT22;9579;49.488;8.226;2024-03-02T08:47:05;12.60;99.90
18894;DHT22;9579;49.488;8.226;2024-03-02T08:50:08;11.70;99.90
18894;DHT22;9579;49.488;8.226;2024-03-02T08:55:36;12.60;99.90
18894;DHT22;9579;49.488;8.226;2024-03-02T09:01:21;13.00;99.90
18894;DHT22;9579;49.488;8.226;2024-03-02T09:09:30;13.00;99.90
18894;DHT22;9579;49.488;8.226;2024-03-02T09:22:09;12.70;99.90
18894;DHT22;9579;49.488;8.226;2024-03-02T09:24:58;12.80;99.90
18894;DHT22;9579;49.488;8.226;2024-03-02T09:30:23;13.00;99.90
18894;DHT22;9579;49.488;8.226;2024-03-02T09:33:16;12.00;99.90
18894;DHT22;9579;49.488;8.226;2024-03-02T09:36:21;13.50;99.90
18894;DHT22;9579;49.488;8.226;2024-03-02T09:40:00;13.90;99.90
18894;DHT22;9579;49.488;8.226;2024-03-02T09:43:02;14.10;99.90
18894;DHT22;9579;49.488;8.226;2024-03-02T09:46:13;14.30;99.90
18894;DHT22;9579;49.488;8.226;2024-03-02T09:49:00;14.20;99.90
18894;DHT22;9579;49.488;8.226;2024-03-02T09:51:48;14.70;99.90
18894;DHT22;9579;49.488;8.226;2024-03-02T09:54:37;14.80;99.90
18894;DHT22;9579;49.488;8.226;2024-03-02T09:57:24;16.60;99.90
18894;DHT22;9579;49.488;8.226;2024-03-02T10:00:12;15.30;99.90
18894;DHT22;9579;49.488;8.226;2024-03-02T10:03:00;15.40;99.90
18894;DHT22;9579;49.488;8.226;2024-03-02T10:05:47;15.10;99.90
18894;DHT22;9579;49.488;8.226;2024-03-02T10:08:42;15.00;99.90
18894;DHT22;9579;49.488;8.226;2024-03-02T10:11:33;14.60;99.90
18894;DHT22;9579;49.488;8.226;2024-03-02T10:14:22;14.80;99.90
18894;DHT22;9579;49.488;8.226;2024-03-02T10:17:10;14.60;99.90
18894;DHT22;9579;49.488;8.226;2024-03-02T10:19:57;15.40;99.90
18894;DHT22;9579;49.488;8.226;2024-03-02T10:22:44;15.60;99.90
18894;DHT22;9579;49.488;8.226;2024-03-02T10:25:32;14.60;99.90
18894;DHT22;9579;49.488;8.226;2024-03-02T10:28:21;14.50;99.90
18894;DHT22;9579;49.488;8.226;2024-03-02T10:31:08;14.40;99.90
18894;DHT22;9579;49.488;8.226;2024-03-02T10:34:02;14.50;99.90
18894;DHT22;9579;49.488;8.226;2024-03-02T10:36:50;14.30;99.90
18894;DHT22;9579;49.488;8.226;2024-03-02T10:39:38;15.10;99.90
18894;DHT22;9579;49.488;8.226;2024-03-02T10:42:56;14.70;99.90
18894;DHT22;9579;49.488;8.226;2024-03-02T10:46:39;14.50;99.80
18894;DHT22;9579;49.488;8.226;2024-03-02T10:49:39;14.50;99.90
18894;DHT22;9579;49.488;8.226;2024-03-02T10:52:34;14.90;99.90
18894;DHT22;9579;49.488;8.226;2024-03-02T10:55:25;14.40;99.90
18894;DHT22;9579;49.488;8.226;2024-03-02T10:58:12;14.80;99.90
18894;DHT22;9579;49.488;8.226;2024-03-02T11:01:02;15.00;99.90
18894;DHT22;9579;49.488;8.226;2024-03-02T11:03:51;15.40;99.60
18894;DHT22;9579;49.488;8.226;2024-03-02T11:06:42;15.70;99.30
18894;DHT22;9579;49.488;8.226;2024-03-02T11:09:34;16.10;98.80
18894;DHT22;9579;49.488;8.226;2024-03-02T11:12:29;16.20;97.30
18894;DHT22;9579;49.488;8.226;2024-03-02T11:15:18;16.50;98.00
18894;DHT22;9579;49.488;8.226;2024-03-02T11:18:06;16.90;98.00
18894;DHT22;9579;49.488;8.226;2024-03-02T11:20:56;15.70;97.40
18894;DHT22;9579;49.488;8.226;2024-03-02T11:23:43;15.90;97.30
18894;DHT22;9579;49.488;8.226;2024-03-02T11:26:38;15.90;97.00
18894;DHT22;9579;49.488;8.226;2024-03-02T11:29:44;16.30;97.50
18894;DHT22;9579;49.488;8.226;2024-03-02T11:32:32;16.50;96.40
18894;DHT22;9579;49.488;8.226;2024-03-02T11:35:19;16.90;96.70
18894;DHT22;9579;49.488;8.226;2024-03-02T11:38:09;16.90;96.00
18894;DHT22;9579;49.488;8.226;2024-03-02T11:40:56;16.80;95.50
18894;DHT22;9579;49.488;8.226;2024-03-02T11:43:43;16.30;95.10
18894;DHT22;9579;49.488;8.226;2024-03-02T11:46:31;16.30;95.60
18894;DHT22;9579;49.488;8.226;2024-03-02T11:49:28;16.20;95.60
18894;DHT22;9579;49.488;8.226;2024-03-02T11:52:23;16.30;96.60
18894;DHT22;9579;49.488;8.226;2024-03-02T11:55:14;16.60;96.50
18894;DHT22;9579;49.488;8.226;2024-03-02T11:58:03;16.70;96.30
18894;DHT22;9579;49.488;8.226;2024-03-02T12:00:50;17.10;95.40
18894;DHT22;9579;49.488;8.226;2024-03-02T12:03:38;17.30;94.90
18894;DHT22;9579;49.488;8.226;2024-03-02T12:06:25;17.40;94.30
18894;DHT22;9579;49.488;8.226;2024-03-02T12:09:12;17.50;93.50
18894;DHT22;9579;49.488;8.226;2024-03-02T12:12:06;17.40;93.70
18894;DHT22;9579;49.488;8.226;2024-03-02T12:14:54;17.40;93.70
18894;DHT22;9579;49.488;8.226;2024-03-02T12:17:41;17.10;93.90
18894;DHT22;9579;49.488;8.226;2024-03-02T12:20:29;17.20;93.90
18894;DHT22;9579;49.488;8.226;2024-03-02T12:23:16;17.40;93.80
18894;DHT22;9579;49.488;8.226;2024-03-02T12:26:03;17.40;92.70
18894;DHT22;9579;49.488;8.226;2024-03-02T12:28:52;17.50;93.30
18894;DHT22;9579;49.488;8.226;2024-03-02T12:31:39;17.60;93.00
18894;DHT22;9579;49.488;8.226;2024-03-02T12:34:26;17.70;93.20
18894;DHT22;9579;49.488;8.226;2024-03-02T12:37:14;17.90;93.40
18894;DHT22;9579;49.488;8.226;2024-03-02T12:40:01;18.10;93.30
18894;DHT22;9579;49.488;8.226;2024-03-02T12:42:48;18.20;92.80
18894;DHT22;9579;49.488;8.226;2024-03-02T12:45:37;19.10;93.30
18894;DHT22;9579;49.488;8.226;2024-03-02T12:48:24;19.40;93.20
18894;DHT22;9579;49.488;8.226;2024-03-02T12:51:12;18.80;91.10
18894;DHT22;9579;49.488;8.226;2024-03-02T12:54:00;19.20;90.70
18894;DHT22;9579;49.488;8.226;2024-03-02T12:56:47;20.60;91.10
18894;DHT22;9579;49.488;8.226;2024-03-02T12:59:35;20.50;91.10
18894;DHT22;9579;49.488;8.226;2024-03-02T13:02:27;19.30;90.50
18894;DHT22;9579;49.488;8.226;2024-03-02T13:05:14;19.50;90.60
18894;DHT22;9579;49.488;8.226;2024-03-02T13:08:02;19.70;90.90
18894;DHT22;9579;49.488;8.226;2024-03-02T13:10:50;20.10;90.70
18894;DHT22;9579;49.488;8.226;2024-03-02T13:13:38;20.40;89.50
18894;DHT22;9579;49.488;8.226;2024-03-02T13:16:25;20.60;89.70
18894;DHT22;9579;49.488;8.226;2024-03-02T13:19:14;21.10;88.20
18894;DHT22;9579;49.488;8.226;2024-03-02T13:22:01;21.80;92.80
18894;DHT22;9579;49.488;8.226;2024-03-02T13:24:49;20.90;90.20
18894;DHT22;9579;49.488;8.226;2024-03-02T13:27:36;21.10;89.20
18894;DHT22;9579;49.488;8.226;2024-03-02T13:30:23;21.30;88.80
18894;DHT22;9579;49.488;8.226;2024-03-02T13:33:10;21.60;86.10
18894;DHT22;9579;49.488;8.226;2024-03-02T13:35:59;21.70;87.80
18894;DHT22;9579;49.488;8.226;2024-03-02T13:38:47;22.00;85.70
18894;DHT22;9579;49.488;8.226;2024-03-02T13:41:34;22.00;82.30
18894;DHT22;9579;49.488;8.226;2024-03-02T13:44:21;21.90;82.80
18894;DHT22;9579;49.488;8.226;2024-03-02T13:47:08;22.20;81.60
18894;DHT22;9579;49.488;8.226;2024-03-02T13:49:55;22.70;79.10
18894;DHT22;9579;49.488;8.226;2024-03-02T13:52:44;23.00;79.50
18894;DHT22;9579;49.488;8.226;2024-03-02T13:55:31;23.00;78.70
18894;DHT22;9579;49.488;8.226;2024-03-02T13:58:17;23.40;77.40
18894;DHT22;9579;49.488;8.226;2024-03-02T14:01:06;22.80;75.60
18894;DHT22;9579;49.488;8.226;2024-03-02T14:03:53;22.50;76.60
18894;DHT22;9579;49.488;8.226;2024-03-02T14:06:42;22.50;77.20
18894;DHT22;9579;49.488;8.226;2024-03-02T14:09:31;22.80;78.40
18894;DHT22;9579;49.488;8.226;2024-03-02T14:12:18;23.00;77.80
18894;DHT22;9579;49.488;8.226;2024-03-02T14:15:06;23.40;77.50
18894;DHT22;9579;49.488;8.226;2024-03-02T14:17:53;23.70;75.90
18894;DHT22;9579;49.488;8.226;2024-03-02T14:20:40;23.80;74.80
18894;DHT22;9579;49.488;8.226;2024-03-02T14:23:28;23.90;75.20
18894;DHT22;9579;49.488;8.226;2024-03-02T14:26:16;23.40;73.80
18894;DHT22;9579;49.488;8.226;2024-03-02T14:29:04;23.30;75.00
18894;DHT22;9579;49.488;8.226;2024-03-02T14:31:51;22.90;75.70
18894;DHT22;9579;49.488;8.226;2024-03-02T14:34:38;22.70;76.10
18894;DHT22;9579;49.488;8.226;2024-03-02T14:37:25;22.20;74.50
18894;DHT22;9579;49.488;8.226;2024-03-02T14:40:12;21.60;76.30
18894;DHT22;9579;49.488;8.226;2024-03-02T14:43:00;21.50;77.40
18894;DHT22;9579;49.488;8.226;2024-03-02T14:45:47;21.30;78.10
18894;DHT22;9579;49.488;8.226;2024-03-02T14:48:35;21.20;77.80
18894;DHT22;9579;49.488;8.226;2024-03-02T14:51:21;20.80;78.50
18894;DHT22;9579;49.488;8.226;2024-03-02T14:54:09;20.70;79.70
18894;DHT22;9579;49.488;8.226;2024-03-02T14:56:55;20.30;80.20
18894;DHT22;9579;49.488;8.226;2024-03-02T14:59:44;20.00;81.00
18894;DHT22;9579;49.488;8.226;2024-03-02T15:02:31;19.80;82.50
18894;DHT22;9579;49.488;8.226;2024-03-02T15:05:18;19.20;83.40
18894;DHT22;9579;49.488;8.226;2024-03-02T15:08:06;18.70;83.90
18894;DHT22;9579;49.488;8.226;2024-03-02T15:10:53;18.10;86.40
18894;DHT22;9579;49.488;8.226;2024-03-02T15:13:43;18.00;88.20
18894;DHT22;9579;49.488;8.226;2024-03-02T15:16:31;18.00;88.80
18894;DHT22;9579;49.488;8.226;2024-03-02T15:19:18;18.00;88.80
18894;DHT22;9579;49.488;8.226;2024-03-02T15:22:05;18.00;89.40
18894;DHT22;9579;49.488;8.226;2024-03-02T15:24:52;18.00;88.60
18894;DHT22;9579;49.488;8.226;2024-03-02T15:27:40;17.90;89.80
18894;DHT22;9579;49.488;8.226;2024-03-02T15:30:28;17.80;89.70
18894;DHT22;9579;49.488;8.226;2024-03-02T15:33:16;17.60;90.10
18894;DHT22;9579;49.488;8.226;2024-03-02T15:36:04;17.70;90.60
18894;DHT22;9579;49.488;8.226;2024-03-02T15:38:51;17.70;90.60
18894;DHT22;9579;49.488;8.226;2024-03-02T15:41:38;17.80;91.00
18894;DHT22;9579;49.488;8.226;2024-03-02T15:44:26;17.70;91.00
18894;DHT22;9579;49.488;8.226;2024-03-02T15:47:13;17.70;91.20
18894;DHT22;9579;49.488;8.226;2024-03-02T15:50:01;17.70;91.10
18894;DHT22;9579;49.488;8.226;2024-03-02T15:52:49;17.70;91.30
18894;DHT22;9579;49.488;8.226;2024-03-02T15:55:37;17.70;92.10
18894;DHT22;9579;49.488;8.226;2024-03-02T15:58:25;17.70;92.50
18894;DHT22;9579;49.488;8.226;2024-03-02T16:01:12;17.70;92.90
18894;DHT22;9579;49.488;8.226;2024-03-02T16:03:59;17.60;93.30
18894;DHT22;9579;49.488;8.226;2024-03-02T16:06:47;17.50;93.70
18894;DHT22;9579;49.488;8.226;2024-03-02T16:09:34;18.20;94.00
18894;DHT22;9579;49.488;8.226;2024-03-02T16:12:21;17.30;94.00
18894;DHT22;9579;49.488;8.226;2024-03-02T16:15:09;17.10;94.10
18894;DHT22;9579;49.488;8.226;2024-03-02T16:17:56;17.00;94.10
18894;DHT22;9579;49.488;8.226;2024-03-02T16:20:44;16.90;94.30
18894;DHT22;9579;49.488;8.226;2024-03-02T16:23:32;17.20;94.60
18894;DHT22;9579;49.488;8.226;2024-03-02T16:26:19;16.80;94.90
18894;DHT22;9579;49.488;8.226;2024-03-02T16:29:06;16.60;94.80
18894;DHT22;9579;49.488;8.226;2024-03-02T16:31:53;16.60;95.20
18894;DHT22;9579;49.488;8.226;2024-03-02T16:34:40;16.50;95.20
18894;DHT22;9579;49.488;8.226;2024-03-02T16:37:27;16.40;95.60
18894;DHT22;9579;49.488;8.226;2024-03-02T16:40:16;16.30;95.50
18894;DHT22;9579;49.488;8.226;2024-03-02T16:43:03;16.20;96.00
18894;DHT22;9579;49.488;8.226;2024-03-02T16:45:50;14.90;95.40
18894;DHT22;9579;49.488;8.226;2024-03-02T16:48:38;16.40;96.80
18894;DHT22;9579;49.488;8.226;2024-03-02T16:51:25;16.10;96.80
18894;DHT22;9579;49.488;8.226;2024-03-02T16:54:12;16.00;97.20
18894;DHT22;9579;49.488;8.226;2024-03-02T16:57:01;16.00;97.80
18894;DHT22;9579;49.488;8.226;2024-03-02T16:59:48;15.90;97.60
18894;DHT22;9579;49.488;8.226;2024-03-02T17:02:35;15.80;97.90
18894;DHT22;9579;49.488;8.226;2024-03-02T17:05:22;15.70;98.00
18894;DHT22;9579;49.488;8.226;2024-03-02T17:08:12;15.70;98.30
18894;DHT22;9579;49.488;8.226;2024-03-02T17:32:52;14.90;99.80
18894;DHT22;9579;49.488;8.226;2024-03-02T17:43:25;14.70;99.90
18894;DHT22;9579;49.488;8.226;2024-03-02T17:57:18;14.80;99.90
18894;DHT22;9579;49.488;8.226;2024-03-02T18:04:44;14.30;99.90
18894;DHT22;9579;49.488;8.226;2024-03-02T18:14:16;14.20;99.90
18894;DHT22;9579;49.488;8.226;2024-03-02T18:17:23;13.20;99.90
18894;DHT22;9579;49.488;8.226;2024-03-02T18:20:20;12.80;99.90
18894;DHT22;9579;49.488;8.226;2024-03-02T18:23:50;14.20;99.90
18894;DHT22;9579;49.488;8.226;2024-03-02T18:26:43;14.20;99.90
18894;DHT22;9579;49.488;8.226;2024-03-02T18:36:40;14.00;99.90
18894;DHT22;9579;49.488;8.226;2024-03-02T18:39:33;14.00;99.90
18894;DHT22;9579;49.488;8.226;2024-03-02T18:42:27;15.10;99.90
18894;DHT22;9579;49.488;8.226;2024-03-02T18:45:20;13.90;99.90
18894;DHT22;9579;49.488;8.226;2024-03-02T18:48:12;13.70;99.90
18894;DHT22;9579;49.488;8.226;2024-03-02T18:51:07;14.30;99.90
18894;DHT22;9579;49.488;8.226;2024-03-02T18:53:56;13.70;99.90
18894;DHT22;9579;49.488;8.226;2024-03-02T18:56:50;13.50;99.90
18894;DHT22;9579;49.488;8.226;2024-03-02T18:59:38;13.90;99.90
18894;DHT22;9579;49.488;8.226;2024-03-02T19:02:25;13.40;99.90
18894;DHT22;9579;49.488;8.226;2024-03-02T19:05:14;13.50;99.90
18894;DHT22;9579;49.488;8.226;2024-03-02T19:08:02;13.40;99.90
18894;DHT22;9579;49.488;8.226;2024-03-02T19:10:54;13.40;99.90
18894;DHT22;9579;49.488;8.226;2024-03-02T19:13:48;13.20;99.90
18894;DHT22;9579;49.488;8.226;2024-03-02T19:16:38;12.70;99.90
18894;DHT22;9579;49.488;8.226;2024-03-02T19:19:25;13.30;99.90
18894;DHT22;9579;49.488;8.226;2024-03-02T19:22:13;13.50;99.90
18894;DHT22;9579;49.488;8.226;2024-03-02T19:25:01;14.40;99.90
18894;DHT22;9579;49.488;8.226;2024-03-02T19:27:49;13.10;99.90
18894;DHT22;9579;49.488;8.226;2024-03-02T19:30:38;13.10;99.90
18894;DHT22;9579;49.488;8.226;2024-03-02T19:33:26;13.90;99.90
18894;DHT22;9579;49.488;8.226;2024-03-02T19:36:15;12.50;99.90
18894;DHT22;9579;49.488;8.226;2024-03-02T19:39:03;14.50;99.90
18894;DHT22;9579;49.488;8.226;2024-03-02T19:41:51;13.50;99.90
18894;DHT22;9579;49.488;8.226;2024-03-02T19:44:38;13.50;99.90
18894;DHT22;9579;49.488;8.226;2024-03-02T19:47:28;12.90;99.90
18894;DHT22;9579;49.488;8.226;2024-03-02T19:50:18;12.70;99.90
18894;DHT22;9579;49.488;8.226;2024-03-02T19:53:05;12.70;99.90
18894;DHT22;9579;49.488;8.226;2024-03-02T19:55:53;13.80;99.90
18894;DHT22;9579;49.488;8.226;2024-03-02T19:58:40;13.60;99.90
18894;DHT22;9579;49.488;8.226;2024-03-02T20:01:27;12.70;99.90
18894;DHT22;9579;49.488;8.226;2024-03-02T20:04:16;13.30;99.90
18894;DHT22;9579;49.488;8.226;2024-03-02T20:07:06;12.70;99.90
18894;DHT22;9579;49.488;8.226;2024-03-02T20:09:54;13.60;99.90
18894;DHT22;9579;49.488;8.226;2024-03-02T20:12:42;14.20;99.90
18894;DHT22;9579;49.488;8.226;2024-03-02T20:15:29;14.10;99.90
18894;DHT22;9579;49.488;8.226;2024-03-02T20:18:17;13.60;99.90
18894;DHT22;9579;49.488;8.226;2024-03-02T20:21:06;13.10;99.90
18894;DHT22;9579;49.488;8.226;2024-03-02T20:23:53;12.50;99.90
18894;DHT22;9579;49.488;8.226;2024-03-02T20:26:41;12.70;99.90
18894;DHT22;9579;49.488;8.226;2024-03-02T20:29:28;12.80;99.90
18894;DHT22;9579;49.488;8.226;2024-03-02T20:32:16;14.00;99.90